sensor_id;sensor_type;location;lat;lon;timestamp;pressure;altitude;pressure_sealevel;temperature;humidity
39739;BME280;25422;48.286;8.484;2023-02-19T00:01:10;94647.78;;;7.65;100.00
39739;BME280;25422;48.286;8.484;2023-02-19T00:03:37;94640.13;;;7.63;100.00
39739;BME280;25422;48.286;8.484;2023-02-19T00:06:05;94640.94;;;7.64;100.00
39739;BME280;25422;48.286;8.484;2023-02-19T00:08:31;94635.59;;;7.65;100.00
39739;BME280;25422;48.286;8.484;2023-02-19T00:11:06;94633.25;;;7.62;100.00
39739;BME280;25422;48.286;8.484;2023-02-19T00:13:35;94629.16;;;7.59;100.00
39739;BME280;25422;48.286;8.484;2023-02-19T00:16:05;94636.84;;;7.61;100.00
39739;BME280;25422;48.286;8.484;2023-02-19T00:18:30;94627.81;;;7.65;100.00
39739;BME280;25422;48.286;8.484;2023-02-19T00:20:56;94627.25;;;7.62;100.00
39739;BME280;25422;48.286;8.484;2023-02-19T00:23:21;94619.28;;;7.63;100.00
39739;BME280;25422;48.286;8.484;2023-02-19T00:25:47;94622.31;;;7.68;100.00
39739;BME280;25422;48.286;8.484;2023-02-19T00:28:12;94621.91;;;7.63;100.00
39739;BME280;25422;48.286;8.484;2023-02-19T00:30:37;94620.25;;;7.62;100.00
39739;BME280;25422;48.286;8.484;2023-02-19T00:33:03;94620.38;;;7.60;100.00
39739;BME280;25422;48.286;8.484;2023-02-19T00:35:28;94622.31;;;7.68;100.00
39739;BME280;25422;48.286;8.484;2023-02-19T00:37:54;94616.97;;;7.60;100.00
39739;BME280;25422;48.286;8.484;2023-02-19T00:40:19;94616.13;;;7.59;100.00
39739;BME280;25422;48.286;8.484;2023-02-19T00:42:45;94626.97;;;7.55;100.00
39739;BME280;25422;48.286;8.484;2023-02-19T00:45:14;94623.56;;;7.54;100.00
39739;BME280;25422;48.286;8.484;2023-02-19T00:47:40;94623.81;;;7.51;100.00
39739;BME280;25422;48.286;8.484;2023-02-19T00:50:05;94618.91;;;7.48;100.00
39739;BME280;25422;48.286;8.484;2023-02-19T00:52:31;94625.91;;;7.48;100.00
39739;BME280;25422;48.286;8.484;2023-02-19T00:54:56;94623.56;;;7.45;100.00
39739;BME280;25422;48.286;8.484;2023-02-19T00:57:22;94620.97;;;7.45;100.00
39739;BME280;25422;48.286;8.484;2023-02-19T00:59:47;94620.56;;;7.49;100.00
39739;BME280;25422;48.286;8.484;2023-02-19T01:02:13;94613.28;;;7.43;100.00
39739;BME280;25422;48.286;8.484;2023-02-19T01:04:38;94606.19;;;7.45;100.00
39739;BME280;25422;48.286;8.484;2023-02-19T01:07:03;94607.94;;;7.45;100.00
39739;BME280;25422;48.286;8.484;2023-02-19T01:09:29;94603.72;;;7.43;100.00
39739;BME280;25422;48.286;8.484;2023-02-19T01:11:55;94608.22;;;7.41;100.00
39739;BME280;25422;48.286;8.484;2023-02-19T01:14:20;94598.66;;;7.42;100.00
39739;BME280;25422;48.286;8.484;2023-02-19T01:16:45;94593.44;;;7.42;100.00
39739;BME280;25422;48.286;8.484;2023-02-19T01:19:11;94594.66;;;7.38;100.00
39739;BME280;25422;48.286;8.484;2023-02-19T01:21:38;94594.66;;;7.38;100.00
39739;BME280;25422;48.286;8.484;2023-02-19T01:24:04;94587.97;;;7.35;100.00
39739;BME280;25422;48.286;8.484;2023-02-19T01:26:31;94592.78;;;7.30;100.00
39739;BME280;25422;48.286;8.484;2023-02-19T01:28:58;94576.47;;;7.28;100.00
39739;BME280;25422;48.286;8.484;2023-02-19T01:31:24;94574.97;;;7.35;100.00
39739;BME280;25422;48.286;8.484;2023-02-19T01:33:54;94576.75;;;7.25;100.00
39739;BME280;25422;48.286;8.484;2023-02-19T01:36:21;94581.00;;;7.26;100.00
39739;BME280;25422;48.286;8.484;2023-02-19T01:38:47;94569.38;;;7.20;100.00
39739;BME280;25422;48.286;8.484;2023-02-19T01:41:22;94587.44;;;7.22;100.00
39739;BME280;25422;48.286;8.484;2023-02-19T01:46:33;94598.25;;;7.17;100.00
39739;BME280;25422;48.286;8.484;2023-02-19T01:49:04;94599.34;;;7.15;100.00
39739;BME280;25422;48.286;8.484;2023-02-19T01:51:32;94607.03;;;7.16;100.00
39739;BME280;25422;48.286;8.484;2023-02-19T01:54:00;94595.13;;;7.14;100.00
39739;BME280;25422;48.286;8.484;2023-02-19T01:56:28;94588.56;;;7.09;100.00
39739;BME280;25422;48.286;8.484;2023-02-19T01:58:55;94584.16;;;7.10;100.00
39739;BME280;25422;48.286;8.484;2023-02-19T02:01:20;94584.69;;;7.04;100.00
39739;BME280;25422;48.286;8.484;2023-02-19T02:03:47;94584.16;;;7.00;100.00
39739;BME280;25422;48.286;8.484;2023-02-19T02:06:25;94576.63;;;6.97;100.00
39739;BME280;25422;48.286;8.484;2023-02-19T02:08:55;94582.38;;;6.91;100.00
39739;BME280;25422;48.286;8.484;2023-02-19T02:11:42;94573.63;;;6.92;100.00
39739;BME280;25422;48.286;8.484;2023-02-19T02:14:09;94570.06;;;6.83;100.00
39739;BME280;25422;48.286;8.484;2023-02-19T02:16:45;94558.00;;;6.82;100.00
39739;BME280;25422;48.286;8.484;2023-02-19T02:19:41;94548.72;;;6.80;100.00
39739;BME280;25422;48.286;8.484;2023-02-19T02:22:27;94563.34;;;6.71;100.00
39739;BME280;25422;48.286;8.484;2023-02-19T02:30:25;94574.84;;;6.68;100.00
39739;BME280;25422;48.286;8.484;2023-02-19T02:35:35;94578.69;;;6.64;100.00
39739;BME280;25422;48.286;8.484;2023-02-19T02:38:07;94584.16;;;6.61;100.00
39739;BME280;25422;48.286;8.484;2023-02-19T02:40:34;94583.34;;;6.70;100.00
39739;BME280;25422;48.286;8.484;2023-02-19T02:43:01;94585.09;;;6.60;100.00
39739;BME280;25422;48.286;8.484;2023-02-19T02:45:29;94575.94;;;6.56;100.00
39739;BME280;25422;48.286;8.484;2023-02-19T02:48:31;94576.63;;;6.58;100.00
39739;BME280;25422;48.286;8.484;2023-02-19T02:51:09;94580.72;;;6.51;100.00
39739;BME280;25422;48.286;8.484;2023-02-19T02:53:46;94560.75;;;6.51;100.00
39739;BME280;25422;48.286;8.484;2023-02-19T02:56:32;94567.44;;;6.44;100.00
39739;BME280;25422;48.286;8.484;2023-02-19T02:59:00;94552.53;;;6.36;100.00
39739;BME280;25422;48.286;8.484;2023-02-19T03:04:34;94535.94;;;6.28;100.00
39739;BME280;25422;48.286;8.484;2023-02-19T03:07:22;94518.28;;;6.12;100.00
39739;BME280;25422;48.286;8.484;2023-02-19T03:09:49;94525.66;;;6.06;100.00
39739;BME280;25422;48.286;8.484;2023-02-19T03:12:16;94503.09;;;6.07;100.00
39739;BME280;25422;48.286;8.484;2023-02-19T03:15:06;94516.31;;;5.94;100.00
39739;BME280;25422;48.286;8.484;2023-02-19T03:17:57;94514.09;;;5.89;100.00
39739;BME280;25422;48.286;8.484;2023-02-19T03:20:47;94515.44;;;5.84;100.00
39739;BME280;25422;48.286;8.484;2023-02-19T03:23:15;94518.72;;;5.86;100.00
39739;BME280;25422;48.286;8.484;2023-02-19T03:25:43;94514.06;;;5.80;100.00
39739;BME280;25422;48.286;8.484;2023-02-19T03:28:44;94519.94;;;5.82;100.00
39739;BME280;25422;48.286;8.484;2023-02-19T03:31:32;94515.72;;;5.81;100.00
39739;BME280;25422;48.286;8.484;2023-02-19T03:34:02;94510.78;;;5.78;100.00
39739;BME280;25422;48.286;8.484;2023-02-19T03:36:30;94516.66;;;5.80;100.00
39739;BME280;25422;48.286;8.484;2023-02-19T03:39:01;94515.03;;;5.79;100.00
39739;BME280;25422;48.286;8.484;2023-02-19T03:41:57;94513.50;;;5.76;100.00
39739;BME280;25422;48.286;8.484;2023-02-19T03:44:39;94516.13;;;5.86;100.00
39739;BME280;25422;48.286;8.484;2023-02-19T03:49:53;94510.25;;;5.84;100.00
39739;BME280;25422;48.286;8.484;2023-02-19T03:52:38;94506.28;;;5.80;100.00
39739;BME280;25422;48.286;8.484;2023-02-19T03:55:10;94509.81;;;5.79;100.00
39739;BME280;25422;48.286;8.484;2023-02-19T03:57:55;94514.06;;;5.80;100.00
39739;BME280;25422;48.286;8.484;2023-02-19T04:00:29;94513.38;;;5.78;100.00
39739;BME280;25422;48.286;8.484;2023-02-19T04:03:17;94509.97;;;5.77;100.00
39739;BME280;25422;48.286;8.484;2023-02-19T04:05:48;94514.75;;;5.82;100.00
39739;BME280;25422;48.286;8.484;2023-02-19T04:08:17;94513.66;;;5.84;100.00
39739;BME280;25422;48.286;8.484;2023-02-19T04:10:50;94503.28;;;5.84;100.00
39739;BME280;25422;48.286;8.484;2023-02-19T04:15:52;94517.78;;;5.87;100.00
39739;BME280;25422;48.286;8.484;2023-02-19T04:18:25;94509.31;;;5.85;100.00
39739;BME280;25422;48.286;8.484;2023-02-19T04:20:53;94504.25;;;5.83;100.00
39739;BME280;25422;48.286;8.484;2023-02-19T04:23:22;94503.44;;;5.93;100.00
39739;BME280;25422;48.286;8.484;2023-02-19T04:25:52;94518.41;;;6.00;100.00
39739;BME280;25422;48.286;8.484;2023-02-19T04:28:19;94509.78;;;6.00;100.00
39739;BME280;25422;48.286;8.484;2023-02-19T04:30:45;94510.00;;;5.97;100.00
39739;BME280;25422;48.286;8.484;2023-02-19T04:33:11;94516.31;;;5.94;100.00
39739;BME280;25422;48.286;8.484;2023-02-19T04:35:36;94507.00;;;5.91;100.00
39739;BME280;25422;48.286;8.484;2023-02-19T04:38:02;94510.13;;;5.95;100.00
39739;BME280;25422;48.286;8.484;2023-02-19T04:40:27;94517.13;;;5.95;100.00
39739;BME280;25422;48.286;8.484;2023-02-19T04:42:53;94514.81;;;5.91;100.00
39739;BME280;25422;48.286;8.484;2023-02-19T04:45:18;94517.41;;;5.91;100.00
39739;BME280;25422;48.286;8.484;2023-02-19T04:47:44;94521.75;;;5.91;100.00
39739;BME280;25422;48.286;8.484;2023-02-19T04:50:09;94526.56;;;5.96;100.00
39739;BME280;25422;48.286;8.484;2023-02-19T04:52:35;94530.09;;;5.95;100.00
39739;BME280;25422;48.286;8.484;2023-02-19T04:55:00;94525.72;;;5.95;100.00
39739;BME280;25422;48.286;8.484;2023-02-19T04:57:25;94528.31;;;5.95;100.00
39739;BME280;25422;48.286;8.484;2023-02-19T04:59:51;94535.56;;;5.91;100.00
39739;BME280;25422;48.286;8.484;2023-02-19T05:02:17;94528.03;;;5.88;100.00
39739;BME280;25422;48.286;8.484;2023-02-19T05:04:42;94540.88;;;5.90;100.00
39739;BME280;25422;48.286;8.484;2023-02-19T05:07:08;94534.06;;;5.89;100.00
39739;BME280;25422;48.286;8.484;2023-02-19T05:09:33;94538.56;;;5.87;100.00
39739;BME280;25422;48.286;8.484;2023-02-19T05:11:58;94550.84;;;5.85;100.00
39739;BME280;25422;48.286;8.484;2023-02-19T05:14:24;94553.16;;;5.78;100.00
39739;BME280;25422;48.286;8.484;2023-02-19T05:16:49;94551.34;;;5.69;100.00
39739;BME280;25422;48.286;8.484;2023-02-19T05:19:15;94560.59;;;5.62;100.00
39739;BME280;25422;48.286;8.484;2023-02-19T05:21:40;94562.91;;;5.55;100.00
39739;BME280;25422;48.286;8.484;2023-02-19T05:24:06;94573.66;;;5.50;100.00
39739;BME280;25422;48.286;8.484;2023-02-19T05:26:32;94587.03;;;5.46;100.00
39739;BME280;25422;48.286;8.484;2023-02-19T05:28:58;94586.84;;;5.37;100.00
39739;BME280;25422;48.286;8.484;2023-02-19T05:31:24;94587.34;;;5.31;100.00
39739;BME280;25422;48.286;8.484;2023-02-19T05:33:49;94586.78;;;5.28;100.00
39739;BME280;25422;48.286;8.484;2023-02-19T05:36:18;94607.63;;;5.26;100.00
39739;BME280;25422;48.286;8.484;2023-02-19T05:38:44;94608.63;;;5.25;100.00
39739;BME280;25422;48.286;8.484;2023-02-19T05:43:40;94592.16;;;5.15;100.00
39739;BME280;25422;48.286;8.484;2023-02-19T05:46:06;94597.72;;;5.10;100.00
39739;BME280;25422;48.286;8.484;2023-02-19T05:48:32;94610.09;;;5.06;100.00
39739;BME280;25422;48.286;8.484;2023-02-19T05:51:09;94615.44;;;5.05;100.00
39739;BME280;25422;48.286;8.484;2023-02-19T05:53:36;94619.09;;;5.02;100.00
39739;BME280;25422;48.286;8.484;2023-02-19T05:56:02;94617.81;;;4.97;100.00
39739;BME280;25422;48.286;8.484;2023-02-19T05:58:28;94621.47;;;4.94;100.00
39739;BME280;25422;48.286;8.484;2023-02-19T06:00:54;94617.38;;;4.92;100.00
39739;BME280;25422;48.286;8.484;2023-02-19T06:03:20;94624.56;;;4.88;100.00
39739;BME280;25422;48.286;8.484;2023-02-19T06:05:45;94620.31;;;4.87;100.00
39739;BME280;25422;48.286;8.484;2023-02-19T06:08:14;94629.06;;;4.86;100.00
39739;BME280;25422;48.286;8.484;2023-02-19T06:10:40;94647.44;;;4.83;100.00
39739;BME280;25422;48.286;8.484;2023-02-19T06:13:07;94647.69;;;4.80;100.00
39739;BME280;25422;48.286;8.484;2023-02-19T06:15:33;94640.75;;;4.80;100.00
39739;BME280;25422;48.286;8.484;2023-02-19T06:17:59;94642.88;;;4.75;100.00
39739;BME280;25422;48.286;8.484;2023-02-19T06:20:25;94654.91;;;4.76;100.00
39739;BME280;25422;48.286;8.484;2023-02-19T06:22:50;94648.41;;;4.70;100.00
39739;BME280;25422;48.286;8.484;2023-02-19T06:25:17;94658.09;;;4.68;100.00
39739;BME280;25422;48.286;8.484;2023-02-19T06:27:42;94664.47;;;4.64;100.00
39739;BME280;25422;48.286;8.484;2023-02-19T06:30:08;94666.47;;;4.61;100.00
39739;BME280;25422;48.286;8.484;2023-02-19T06:32:34;94668.47;;;4.57;100.00
39739;BME280;25422;48.286;8.484;2023-02-19T06:34:59;94677.34;;;4.54;100.00
39739;BME280;25422;48.286;8.484;2023-02-19T06:37:25;94692.03;;;4.54;100.00
39739;BME280;25422;48.286;8.484;2023-02-19T06:39:50;94681.78;;;4.52;100.00
39739;BME280;25422;48.286;8.484;2023-02-19T06:42:15;94686.84;;;4.54;100.00
39739;BME280;25422;48.286;8.484;2023-02-19T06:44:41;94696.41;;;4.53;100.00
39739;BME280;25422;48.286;8.484;2023-02-19T06:47:06;94688.03;;;4.50;100.00
39739;BME280;25422;48.286;8.484;2023-02-19T06:49:32;94697.47;;;4.51;100.00
39739;BME280;25422;48.286;8.484;2023-02-19T06:51:57;94706.41;;;4.47;100.00
39739;BME280;25422;48.286;8.484;2023-02-19T06:54:23;94703.84;;;4.47;100.00
39739;BME280;25422;48.286;8.484;2023-02-19T06:56:50;94711.34;;;4.50;100.00
39739;BME280;25422;48.286;8.484;2023-02-19T06:59:15;94719.25;;;4.48;100.00
39739;BME280;25422;48.286;8.484;2023-02-19T07:01:41;94725.38;;;4.47;100.00
39739;BME280;25422;48.286;8.484;2023-02-19T07:04:07;94730.69;;;4.46;100.00
39739;BME280;25422;48.286;8.484;2023-02-19T07:06:33;94734.22;;;4.45;100.00
39739;BME280;25422;48.286;8.484;2023-02-19T07:08:59;94740.91;;;4.47;100.00
39739;BME280;25422;48.286;8.484;2023-02-19T07:11:28;94741.03;;;4.46;100.00
39739;BME280;25422;48.286;8.484;2023-02-19T07:13:57;94754.00;;;4.46;100.00
39739;BME280;25422;48.286;8.484;2023-02-19T07:16:23;94755.41;;;4.50;100.00
39739;BME280;25422;48.286;8.484;2023-02-19T07:18:49;94755.66;;;4.47;100.00
39739;BME280;25422;48.286;8.484;2023-02-19T07:21:15;94756.34;;;4.49;100.00
39739;BME280;25422;48.286;8.484;2023-02-19T07:23:42;94759.66;;;4.51;100.00
39739;BME280;25422;48.286;8.484;2023-02-19T07:26:09;94750.47;;;4.58;100.00
39739;BME280;25422;48.286;8.484;2023-02-19T07:28:35;94752.81;;;4.61;100.00
39739;BME280;25422;48.286;8.484;2023-02-19T07:31:02;94768.94;;;4.65;100.00
39739;BME280;25422;48.286;8.484;2023-02-19T07:33:28;94765.66;;;4.63;100.00
39739;BME280;25422;48.286;8.484;2023-02-19T07:35:53;94758.72;;;4.63;100.00
39739;BME280;25422;48.286;8.484;2023-02-19T07:38:20;94757.06;;;4.62;100.00
39739;BME280;25422;48.286;8.484;2023-02-19T07:40:50;94757.66;;;4.66;100.00
39739;BME280;25422;48.286;8.484;2023-02-19T07:43:17;94760.94;;;4.68;100.00
39739;BME280;25422;48.286;8.484;2023-02-19T07:45:42;94759.06;;;4.70;100.00
39739;BME280;25422;48.286;8.484;2023-02-19T07:48:08;94772.94;;;4.69;100.00
39739;BME280;25422;48.286;8.484;2023-02-19T07:50:33;94762.34;;;4.72;100.00
39739;BME280;25422;48.286;8.484;2023-02-19T07:52:58;94766.47;;;4.86;100.00
39739;BME280;25422;48.286;8.484;2023-02-19T07:55:24;94779.28;;;4.99;100.00
39739;BME280;25422;48.286;8.484;2023-02-19T07:57:49;94775.75;;;5.00;100.00
39739;BME280;25422;48.286;8.484;2023-02-19T08:00:15;94777.50;;;5.11;100.00
39739;BME280;25422;48.286;8.484;2023-02-19T08:02:40;94774.44;;;5.17;100.00
39739;BME280;25422;48.286;8.484;2023-02-19T08:05:27;94780.78;;;5.13;100.00
39739;BME280;25422;48.286;8.484;2023-02-19T08:07:54;94793.44;;;5.06;100.00
39739;BME280;25422;48.286;8.484;2023-02-19T08:10:20;94776.91;;;5.07;100.00
39739;BME280;25422;48.286;8.484;2023-02-19T08:13:04;94782.22;;;5.05;100.00
39739;BME280;25422;48.286;8.484;2023-02-19T08:15:45;94790.00;;;5.05;100.00
39739;BME280;25422;48.286;8.484;2023-02-19T08:18:12;94799.81;;;5.02;100.00
39739;BME280;25422;48.286;8.484;2023-02-19T08:20:38;94801.69;;;5.00;100.00
39739;BME280;25422;48.286;8.484;2023-02-19T08:23:04;94810.06;;;5.03;100.00
39739;BME280;25422;48.286;8.484;2023-02-19T08:25:30;94798.97;;;5.01;100.00
39739;BME280;25422;48.286;8.484;2023-02-19T08:27:56;94806.50;;;5.04;100.00
39739;BME280;25422;48.286;8.484;2023-02-19T08:30:22;94806.41;;;5.06;100.00
39739;BME280;25422;48.286;8.484;2023-02-19T08:32:48;94811.47;;;5.07;100.00
39739;BME280;25422;48.286;8.484;2023-02-19T08:35:13;94810.50;;;5.09;100.00
39739;BME280;25422;48.286;8.484;2023-02-19T08:37:38;94819.00;;;5.11;100.00
39739;BME280;25422;48.286;8.484;2023-02-19T08:40:04;94821.34;;;5.14;100.00
39739;BME280;25422;48.286;8.484;2023-02-19T08:42:30;94823.47;;;5.09;100.00
39739;BME280;25422;48.286;8.484;2023-02-19T08:44:55;94814.63;;;5.11;100.00
39739;BME280;25422;48.286;8.484;2023-02-19T08:47:21;94820.31;;;5.05;100.00
39739;BME280;25422;48.286;8.484;2023-02-19T08:49:46;94830.56;;;5.06;100.00
39739;BME280;25422;48.286;8.484;2023-02-19T08:52:12;94818.53;;;5.05;100.00
39739;BME280;25422;48.286;8.484;2023-02-19T08:54:37;94815.34;;;5.13;100.00
39739;BME280;25422;48.286;8.484;2023-02-19T08:57:02;94818.16;;;5.21;100.00
39739;BME280;25422;48.286;8.484;2023-02-19T08:59:29;94824.75;;;5.26;100.00
39739;BME280;25422;48.286;8.484;2023-02-19T09:01:55;94821.69;;;5.32;100.00
39739;BME280;25422;48.286;8.484;2023-02-19T09:04:20;94819.66;;;5.35;100.00
39739;BME280;25422;48.286;8.484;2023-02-19T09:06:45;94820.31;;;5.49;100.00
39739;BME280;25422;48.286;8.484;2023-02-19T09:09:11;94827.03;;;5.51;100.00
39739;BME280;25422;48.286;8.484;2023-02-19T09:11:39;94830.25;;;5.44;100.00
39739;BME280;25422;48.286;8.484;2023-02-19T09:14:05;94833.03;;;5.52;100.00
39739;BME280;25422;48.286;8.484;2023-02-19T09:16:35;94827.38;;;5.58;100.00
39739;BME280;25422;48.286;8.484;2023-02-19T09:19:01;94831.41;;;5.51;100.00
39739;BME280;25422;48.286;8.484;2023-02-19T09:21:26;94837.34;;;5.42;100.00
39739;BME280;25422;48.286;8.484;2023-02-19T09:23:52;94830.75;;;5.37;100.00
39739;BME280;25422;48.286;8.484;2023-02-19T09:26:17;94838.06;;;5.32;100.00
39739;BME280;25422;48.286;8.484;2023-02-19T09:28:42;94844.91;;;5.22;100.00
39739;BME280;25422;48.286;8.484;2023-02-19T09:31:11;94846.22;;;5.16;100.00
39739;BME280;25422;48.286;8.484;2023-02-19T09:33:41;94842.09;;;5.25;100.00
39739;BME280;25422;48.286;8.484;2023-02-19T09:36:06;94851.53;;;5.15;100.00
39739;BME280;25422;48.286;8.484;2023-02-19T09:38:31;94847.66;;;5.09;100.00
39739;BME280;25422;48.286;8.484;2023-02-19T09:40:58;94864.53;;;5.03;100.00
39739;BME280;25422;48.286;8.484;2023-02-19T09:43:26;94860.03;;;4.94;100.00
39739;BME280;25422;48.286;8.484;2023-02-19T09:46:02;94864.38;;;4.94;100.00
39739;BME280;25422;48.286;8.484;2023-02-19T09:48:28;94870.41;;;5.05;100.00
39739;BME280;25422;48.286;8.484;2023-02-19T09:50:56;94871.81;;;4.98;100.00
39739;BME280;25422;48.286;8.484;2023-02-19T09:53:25;94880.88;;;5.04;100.00
39739;BME280;25422;48.286;8.484;2023-02-19T09:55:54;94877.25;;;4.95;100.00
39739;BME280;25422;48.286;8.484;2023-02-19T09:58:21;94885.03;;;4.95;100.00
39739;BME280;25422;48.286;8.484;2023-02-19T10:00:50;94890.56;;;5.02;100.00
39739;BME280;25422;48.286;8.484;2023-02-19T10:03:37;94894.91;;;5.13;100.00
39739;BME280;25422;48.286;8.484;2023-02-19T10:06:12;94893.75;;;5.17;100.00
39739;BME280;25422;48.286;8.484;2023-02-19T10:08:40;94896.81;;;5.33;100.00
39739;BME280;25422;48.286;8.484;2023-02-19T10:11:10;94896.22;;;5.30;100.00
39739;BME280;25422;48.286;8.484;2023-02-19T10:16:27;94889.25;;;5.30;100.00
39739;BME280;25422;48.286;8.484;2023-02-19T10:18:53;94887.72;;;5.39;100.00
39739;BME280;25422;48.286;8.484;2023-02-19T10:21:24;94884.28;;;5.38;100.00
39739;BME280;25422;48.286;8.484;2023-02-19T10:23:55;94887.13;;;5.24;100.00
39739;BME280;25422;48.286;8.484;2023-02-19T10:26:23;94896.44;;;5.15;100.00
39739;BME280;25422;48.286;8.484;2023-02-19T10:28:49;94906.13;;;5.13;100.00
39739;BME280;25422;48.286;8.484;2023-02-19T10:31:20;94905.75;;;5.18;100.00
39739;BME280;25422;48.286;8.484;2023-02-19T10:33:55;94893.03;;;5.37;100.00
39739;BME280;25422;48.286;8.484;2023-02-19T10:36:37;94899.47;;;5.54;100.00
39739;BME280;25422;48.286;8.484;2023-02-19T10:39:21;94911.38;;;5.68;100.00
39739;BME280;25422;48.286;8.484;2023-02-19T10:41:52;94914.28;;;5.86;100.00
39739;BME280;25422;48.286;8.484;2023-02-19T10:44:23;94916.97;;;5.96;100.00
39739;BME280;25422;48.286;8.484;2023-02-19T10:46:53;94924.50;;;6.11;100.00
39739;BME280;25422;48.286;8.484;2023-02-19T10:49:34;94925.38;;;6.00;100.00
39739;BME280;25422;48.286;8.484;2023-02-19T10:52:13;94935.78;;;6.21;100.00
39739;BME280;25422;48.286;8.484;2023-02-19T10:54:43;94929.84;;;6.09;100.00
39739;BME280;25422;48.286;8.484;2023-02-19T10:57:29;94931.38;;;5.89;100.00
39739;BME280;25422;48.286;8.484;2023-02-19T11:00:04;94922.28;;;5.95;100.00
39739;BME280;25422;48.286;8.484;2023-02-19T11:02:43;94926.66;;;5.94;100.00
39739;BME280;25422;48.286;8.484;2023-02-19T11:07:44;94916.00;;;5.97;100.00
39739;BME280;25422;48.286;8.484;2023-02-19T11:10:33;94914.19;;;5.77;100.00
39739;BME280;25422;48.286;8.484;2023-02-19T11:13:02;94910.31;;;5.60;100.00
39739;BME280;25422;48.286;8.484;2023-02-19T11:15:34;94906.22;;;5.46;100.00
39739;BME280;25422;48.286;8.484;2023-02-19T11:18:15;94893.91;;;5.70;100.00
39739;BME280;25422;48.286;8.484;2023-02-19T11:21:03;94889.25;;;5.85;100.00
39739;BME280;25422;48.286;8.484;2023-02-19T11:25:59;94889.41;;;6.16;100.00
39739;BME280;25422;48.286;8.484;2023-02-19T11:28:36;94890.34;;;6.15;100.00
39739;BME280;25422;48.286;8.484;2023-02-19T11:31:19;94892.19;;;6.24;100.00
39739;BME280;25422;48.286;8.484;2023-02-19T11:36:42;94892.13;;;6.36;100.00
39739;BME280;25422;48.286;8.484;2023-02-19T11:39:18;94897.47;;;6.55;100.00
39739;BME280;25422;48.286;8.484;2023-02-19T11:41:50;94897.72;;;6.52;100.00
39739;BME280;25422;48.286;8.484;2023-02-19T11:47:31;94891.00;;;6.29;100.00
39739;BME280;25422;48.286;8.484;2023-02-19T11:51:20;94889.22;;;6.08;100.00
39739;BME280;25422;48.286;8.484;2023-02-19T11:53:27;94905.75;;;5.96;100.00
39739;BME280;25422;48.286;8.484;2023-02-19T11:56:09;94895.72;;;5.91;100.00
39739;BME280;25422;48.286;8.484;2023-02-19T11:58:56;94894.75;;;6.03;100.00
39739;BME280;25422;48.286;8.484;2023-02-19T12:04:43;94895.22;;;6.08;100.00
39739;BME280;25422;48.286;8.484;2023-02-19T12:10:41;94888.13;;;6.11;100.00
39739;BME280;25422;48.286;8.484;2023-02-19T12:18:42;94904.69;;;6.31;100.00
39739;BME280;25422;48.286;8.484;2023-02-19T12:33:01;94897.34;;;6.03;100.00
39739;BME280;25422;48.286;8.484;2023-02-19T12:35:40;94893.84;;;6.26;100.00
39739;BME280;25422;48.286;8.484;2023-02-19T12:38:34;94901.78;;;6.24;100.00
39739;BME280;25422;48.286;8.484;2023-02-19T12:43:52;94899.25;;;5.90;100.00
39739;BME280;25422;48.286;8.484;2023-02-19T12:46:27;94907.34;;;5.76;100.00
39739;BME280;25422;48.286;8.484;2023-02-19T12:48:58;94915.84;;;5.66;100.00
39739;BME280;25422;48.286;8.484;2023-02-19T12:51:32;94924.50;;;5.44;100.00
39739;BME280;25422;48.286;8.484;2023-02-19T12:54:11;94927.09;;;5.21;100.00
39739;BME280;25422;48.286;8.484;2023-02-19T12:56:42;94933.47;;;4.95;100.00
39739;BME280;25422;48.286;8.484;2023-02-19T13:04:51;94906.31;;;4.65;100.00
39739;BME280;25422;48.286;8.484;2023-02-19T13:07:24;94910.69;;;4.76;100.00
39739;BME280;25422;48.286;8.484;2023-02-19T13:10:03;94907.66;;;4.82;100.00
39739;BME280;25422;48.286;8.484;2023-02-19T13:12:37;94905.78;;;5.06;100.00
39739;BME280;25422;48.286;8.484;2023-02-19T13:17:50;94930.50;;;5.67;100.00
39739;BME280;25422;48.286;8.484;2023-02-19T13:20:29;94925.22;;;5.90;100.00
39739;BME280;25422;48.286;8.484;2023-02-19T13:31:32;94899.91;;;6.78;100.00
39739;BME280;25422;48.286;8.484;2023-02-19T13:36:37;94918.03;;;6.80;100.00
39739;BME280;25422;48.286;8.484;2023-02-19T13:39:04;94904.00;;;6.71;100.00
39739;BME280;25422;48.286;8.484;2023-02-19T13:41:39;94908.25;;;6.51;100.00
39739;BME280;25422;48.286;8.484;2023-02-19T13:44:20;94901.72;;;6.56;100.00
39739;BME280;25422;48.286;8.484;2023-02-19T13:46:48;94901.25;;;6.72;100.00
39739;BME280;25422;48.286;8.484;2023-02-19T13:52:47;94909.25;;;6.38;100.00
39739;BME280;25422;48.286;8.484;2023-02-19T13:54:48;94901.16;;;6.53;100.00
39739;BME280;25422;48.286;8.484;2023-02-19T13:59:49;94900.69;;;6.90;100.00
39739;BME280;25422;48.286;8.484;2023-02-19T14:04:54;94885.84;;;7.12;100.00
39739;BME280;25422;48.286;8.484;2023-02-19T14:07:46;94886.38;;;7.05;100.00
39739;BME280;25422;48.286;8.484;2023-02-19T14:13:10;94888.00;;;7.06;100.00
39739;BME280;25422;48.286;8.484;2023-02-19T14:15:42;94885.47;;;6.85;100.00
39739;BME280;25422;48.286;8.484;2023-02-19T14:18:42;94879.44;;;6.85;100.00
39739;BME280;25422;48.286;8.484;2023-02-19T14:21:22;94875.56;;;6.79;100.00
39739;BME280;25422;48.286;8.484;2023-02-19T14:23:55;94877.19;;;6.70;100.00
39739;BME280;25422;48.286;8.484;2023-02-19T14:26:24;94883.00;;;6.41;100.00
39739;BME280;25422;48.286;8.484;2023-02-19T14:28:51;94879.97;;;6.36;100.00
39739;BME280;25422;48.286;8.484;2023-02-19T14:31:25;94889.66;;;6.34;100.00
39739;BME280;25422;48.286;8.484;2023-02-19T14:33:59;94891.38;;;6.24;100.00
39739;BME280;25422;48.286;8.484;2023-02-19T14:36:39;94888.81;;;6.13;100.00
39739;BME280;25422;48.286;8.484;2023-02-19T14:41:39;94890.53;;;5.91;100.00
39739;BME280;25422;48.286;8.484;2023-02-19T14:44:11;94905.63;;;5.86;100.00
39739;BME280;25422;48.286;8.484;2023-02-19T14:46:53;94900.97;;;5.80;100.00
39739;BME280;25422;48.286;8.484;2023-02-19T14:49:25;94906.75;;;5.83;100.00
39739;BME280;25422;48.286;8.484;2023-02-19T14:51:56;94909.34;;;5.83;100.00